sim
Sign-in with your pilot id or email,
or register
Callsign
Passwort

Schedule Details

Flight Number: DLH1800
Departure: Munich Airport (EDDM) at 07:40
Arrival: Madrid Barajas Airport (LEMD) at 10:20
Route: Lufthansa Passenger Schedule. Enter filed route here before submitting Pirep.

Weather Information
Getting current METAR information for EDDM 191050Z 05006KT 010V110 CAVOK 19/11 Q1019 NOSIG
Getting current METAR information for LEMD 191100Z 24013KT 9999 FEW020 OVC034 18/13 Q1018 NOSIG

Schedule Frequency

Route Map